Time;durP1;ratioP1;P1;durP2;ratioP2;P2;SDS_P1;SDS_P2;PMS_P1;PMS_P2;Temp;Humidity;BMP_temperature;BMP_pressure;BME280_temperature;BME280_humidity;BME280_pressure;Samples;Min_cycle;Max_cycle;Signal;HPM_P1;HPM_P2
2023/05/31 00:01:22;;;;;;;8.60;1.83;;;;;;;;;;5013839;28;20128;-40
2023/05/31 00:03:49;;;;;;;4.00;1.67;;;;;;;;;;5014200;28;20053;-42
2023/05/31 00:06:16;;;;;;;6.07;2.15;;;;;;;;;;5014521;28;20021;-41
2023/05/31 00:08:43;;;;;;;8.65;1.85;;;;;;;;;;5013904;28;20037;-41
2023/05/31 00:11:10;;;;;;;7.20;2.20;;;;;;;;;;5013815;28;20081;-40
2023/05/31 00:13:40;;;;;;;6.28;1.85;;;;;;;;;;5014051;28;20513;-41
2023/05/31 00:16:08;;;;;;;8.13;2.13;;;;;;;;;;5013522;28;20087;-42
2023/05/31 00:18:35;;;;;;;7.40;2.15;;;;;;;;;;5013427;28;20029;-42
2023/05/31 00:21:02;;;;;;;15.88;5.13;;;;;;;;;;5013752;28;20033;-40
2023/05/31 00:23:29;;;;;;;22.80;7.43;;;;;;;;;;5013661;28;20026;-44
2023/05/31 00:25:56;;;;;;;32.85;9.52;;;;;;;;;;5013971;28;20042;-39
2023/05/31 00:28:23;;;;;;;33.55;11.60;;;;;;;;;;5013415;28;20018;-42
2023/05/31 00:30:50;;;;;;;35.50;12.25;;;;;;;;;;5013769;28;20100;-42
2023/05/31 00:33:17;;;;;;;41.63;14.93;;;;;;;;;;5013537;28;20092;-42
2023/05/31 00:35:44;;;;;;;41.38;13.40;;;;;;;;;;5013712;28;20030;-42
2023/05/31 00:38:11;;;;;;;42.17;14.70;;;;;;;;;;5013307;28;20184;-41
2023/05/31 00:40:38;;;;;;;42.45;13.63;;;;;;;;;;5012640;28;20392;-41
2023/05/31 00:43:05;;;;;;;41.10;13.07;;;;;;;;;;5013031;28;20080;-40
2023/05/31 00:45:34;;;;;;;45.20;13.50;;;;;;;;;;5013106;28;20048;-41
2023/05/31 00:48:02;;;;;;;45.05;13.70;;;;;;;;;;5013488;28;20041;-40
2023/05/31 00:50:29;;;;;;;33.10;12.40;;;;;;;;;;5013237;28;20033;-41
2023/05/31 00:52:57;;;;;;;37.30;13.95;;;;;;;;;;5013157;28;20030;-43
2023/05/31 00:55:25;;;;;;;42.80;13.82;;;;;;;;;;4995609;28;20127;-43
2023/05/31 00:57:52;;;;;;;42.78;14.77;;;;;;;;;;5013314;28;20487;-40
2023/05/31 01:00:20;;;;;;;45.83;15.73;;;;;;;;;;5012400;28;20458;-41
2023/05/31 01:02:50;;;;;;;39.63;13.70;;;;;;;;;;5013125;28;20038;-42
2023/05/31 01:05:17;;;;;;;42.38;13.85;;;;;;;;;;5012892;28;20041;-43
2023/05/31 01:07:45;;;;;;;49.97;15.07;;;;;;;;;;5013297;28;20546;-41
2023/05/31 01:10:13;;;;;;;45.70;16.95;;;;;;;;;;5012704;28;20037;-40
2023/05/31 01:12:59;;;;;;;45.22;16.17;;;;;;;;;;5012850;28;20061;-42
2023/05/31 01:15:28;;;;;;;54.50;17.30;;;;;;;;;;5012287;28;20049;-43
2023/05/31 01:18:00;;;;;;;51.88;18.67;;;;;;;;;;5012663;28;20033;-42
2023/05/31 01:20:38;;;;;;;50.53;17.52;;;;;;;;;;5012752;28;20045;-42
2023/05/31 01:23:12;;;;;;;53.55;15.95;;;;;;;;;;5012011;28;20040;-40
2023/05/31 01:25:59;;;;;;;41.08;15.30;;;;;;;;;;5012506;28;20041;-42
2023/05/31 01:28:30;;;;;;;53.30;17.80;;;;;;;;;;5012209;28;20032;-42
2023/05/31 01:31:00;;;;;;;42.08;15.30;;;;;;;;;;5011865;28;20121;-40
2023/05/31 01:33:28;;;;;;;49.30;16.83;;;;;;;;;;5011927;28;20059;-42
2023/05/31 01:35:55;;;;;;;41.55;15.48;;;;;;;;;;5012616;28;20026;-42
2023/05/31 01:38:22;;;;;;;44.35;16.80;;;;;;;;;;5010484;28;20022;-41
2023/05/31 01:40:50;;;;;;;40.70;15.75;;;;;;;;;;5011386;28;20036;-42
2023/05/31 01:43:17;;;;;;;41.05;15.38;;;;;;;;;;5011753;28;20033;-40
2023/05/31 01:45:45;;;;;;;47.60;15.52;;;;;;;;;;5009193;28;20454;-40
2023/05/31 01:48:12;;;;;;;46.05;16.17;;;;;;;;;;5003000;28;20032;-39
2023/05/31 01:50:41;;;;;;;47.13;15.18;;;;;;;;;;5000409;28;20065;-42
2023/05/31 01:53:08;;;;;;;44.92;14.85;;;;;;;;;;5002357;28;20030;-42
2023/05/31 01:55:35;;;;;;;42.15;15.40;;;;;;;;;;5001446;28;20041;-42
2023/05/31 01:58:02;;;;;;;39.67;14.50;;;;;;;;;;5000645;28;20037;-42
2023/05/31 02:00:31;;;;;;;32.83;13.55;;;;;;;;;;5000311;28;20468;-41
2023/05/31 02:02:58;;;;;;;39.47;13.68;;;;;;;;;;5000047;28;20046;-40
2023/05/31 02:05:25;;;;;;;39.17;14.25;;;;;;;;;;4983248;28;20026;-40
2023/05/31 02:07:54;;;;;;;34.50;12.60;;;;;;;;;;5000051;28;20022;-40
2023/05/31 02:10:21;;;;;;;32.40;13.30;;;;;;;;;;5000148;28;20037;-40
2023/05/31 02:12:53;;;;;;;39.70;13.35;;;;;;;;;;5007325;28;20033;-43
2023/05/31 02:15:20;;;;;;;32.90;12.88;;;;;;;;;;5000695;28;20066;-42
2023/05/31 02:17:51;;;;;;;39.80;12.38;;;;;;;;;;5002254;28;20026;-40
2023/05/31 02:20:18;;;;;;;30.20;11.75;;;;;;;;;;4999674;28;20042;-40
2023/05/31 02:22:46;;;;;;;30.38;11.43;;;;;;;;;;5000927;28;20030;-40
2023/05/31 02:25:14;;;;;;;26.38;10.63;;;;;;;;;;4998567;28;20447;-42
2023/05/31 02:27:42;;;;;;;35.58;12.00;;;;;;;;;;5002524;28;20487;-42
2023/05/31 02:30:10;;;;;;;35.83;12.75;;;;;;;;;;5001709;28;20021;-42
2023/05/31 02:32:37;;;;;;;33.10;11.82;;;;;;;;;;5000308;28;20167;-42
2023/05/31 02:35:06;;;;;;;28.52;11.57;;;;;;;;;;5001947;28;20022;-42
2023/05/31 02:37:33;;;;;;;31.10;11.70;;;;;;;;;;4984693;28;20034;-42
2023/05/31 02:40:00;;;;;;;34.80;12.20;;;;;;;;;;5001288;28;20499;-44
2023/05/31 02:42:27;;;;;;;31.38;11.35;;;;;;;;;;5000636;28;20643;-42
2023/05/31 02:44:54;;;;;;;32.05;10.55;;;;;;;;;;5002484;28;20094;-41
2023/05/31 02:47:21;;;;;;;26.45;10.75;;;;;;;;;;5001594;28;20027;-42
2023/05/31 02:49:48;;;;;;;32.67;11.45;;;;;;;;;;5003174;28;20069;-42
2023/05/31 02:52:15;;;;;;;29.17;10.68;;;;;;;;;;5011787;28;20022;-43
2023/05/31 02:54:42;;;;;;;25.45;10.63;;;;;;;;;;5011715;28;20080;-42
2023/05/31 02:57:09;;;;;;;24.40;9.85;;;;;;;;;;5011796;28;20025;-41
2023/05/31 02:59:36;;;;;;;30.38;10.82;;;;;;;;;;5011682;28;20475;-40
2023/05/31 03:02:04;;;;;;;24.83;10.68;;;;;;;;;;5011638;28;20034;-40
2023/05/31 03:04:31;;;;;;;23.80;9.98;;;;;;;;;;5013918;28;20022;-40
2023/05/31 03:06:58;;;;;;;22.67;9.63;;;;;;;;;;5015755;28;20466;-39
2023/05/31 03:09:25;;;;;;;26.65;10.75;;;;;;;;;;5015664;28;20033;-40
2023/05/31 03:11:52;;;;;;;29.42;10.25;;;;;;;;;;5015568;28;20487;-40
2023/05/31 03:14:19;;;;;;;23.05;9.63;;;;;;;;;;5015457;28;20399;-42
2023/05/31 03:16:46;;;;;;;25.73;10.27;;;;;;;;;;5015461;28;20025;-40
2023/05/31 03:19:13;;;;;;;24.30;9.60;;;;;;;;;;5015497;28;20145;-40
2023/05/31 03:21:40;;;;;;;21.20;9.45;;;;;;;;;;5015304;28;20107;-40
2023/05/31 03:24:07;;;;;;;25.38;10.18;;;;;;;;;;5015264;28;20026;-40
2023/05/31 03:26:35;;;;;;;23.02;9.82;;;;;;;;;;5015411;28;20025;-40
2023/05/31 03:29:02;;;;;;;20.30;9.02;;;;;;;;;;5015188;28;20033;-41
2023/05/31 03:31:29;;;;;;;22.58;9.18;;;;;;;;;;5015402;28;20041;-40
2023/05/31 03:33:56;;;;;;;23.13;10.02;;;;;;;;;;5014896;28;20050;-40
2023/05/31 03:36:23;;;;;;;18.92;8.65;;;;;;;;;;5015109;28;20026;-41
2023/05/31 03:38:51;;;;;;;24.55;10.23;;;;;;;;;;5015092;28;20025;-40
2023/05/31 03:41:18;;;;;;;20.90;9.55;;;;;;;;;;5014920;28;20065;-41
2023/05/31 03:43:45;;;;;;;23.40;9.50;;;;;;;;;;5015096;28;20033;-39
2023/05/31 03:46:12;;;;;;;23.58;9.88;;;;;;;;;;5015018;28;20026;-40
2023/05/31 03:48:39;;;;;;;24.77;9.43;;;;;;;;;;5014949;28;20033;-40
2023/05/31 03:51:06;;;;;;;20.00;9.48;;;;;;;;;;5014805;28;20373;-40
2023/05/31 03:53:33;;;;;;;20.08;8.70;;;;;;;;;;5014862;28;20026;-40
2023/05/31 03:56:00;;;;;;;21.08;9.00;;;;;;;;;;5014829;28;20400;-40
2023/05/31 03:58:27;;;;;;;22.17;9.35;;;;;;;;;;5014726;28;20033;-41
2023/05/31 04:00:54;;;;;;;28.33;9.52;;;;;;;;;;5014558;28;20048;-40
2023/05/31 04:03:21;;;;;;;17.63;8.05;;;;;;;;;;5014560;28;20036;-41
2023/05/31 04:05:48;;;;;;;24.40;8.60;;;;;;;;;;5014672;28;20018;-41
2023/05/31 04:08:15;;;;;;;23.73;9.30;;;;;;;;;;5014589;28;20018;-41
2023/05/31 04:10:42;;;;;;;19.95;8.40;;;;;;;;;;5014481;28;20097;-41
2023/05/31 04:13:09;;;;;;;21.83;8.40;;;;;;;;;;5014509;28;20046;-41
2023/05/31 04:15:37;;;;;;;19.35;8.00;;;;;;;;;;4996250;28;20084;-40
2023/05/31 04:18:04;;;;;;;19.25;7.55;;;;;;;;;;5014404;28;20109;-41
2023/05/31 04:20:31;;;;;;;17.33;7.88;;;;;;;;;;5014250;28;20452;-41
2023/05/31 04:22:58;;;;;;;18.00;7.68;;;;;;;;;;5014282;28;20030;-41
2023/05/31 04:25:25;;;;;;;18.25;8.23;;;;;;;;;;5014278;28;20057;-41
2023/05/31 04:27:52;;;;;;;17.67;7.65;;;;;;;;;;5014229;28;20022;-40
2023/05/31 04:30:19;;;;;;;19.00;8.52;;;;;;;;;;5014172;28;20022;-40
2023/05/31 04:32:52;;;;;;;18.83;8.27;;;;;;;;;;5014010;28;20042;-43
2023/05/31 04:35:19;;;;;;;17.25;8.05;;;;;;;;;;5014030;28;20088;-40
2023/05/31 04:37:51;;;;;;;16.67;7.95;;;;;;;;;;5014057;28;20040;-40
2023/05/31 04:40:19;;;;;;;18.50;7.70;;;;;;;;;;5013771;28;20401;-41
2023/05/31 04:42:46;;;;;;;18.88;7.63;;;;;;;;;;5013731;28;20042;-41
2023/05/31 04:45:15;;;;;;;14.75;7.13;;;;;;;;;;5013922;28;20025;-41
2023/05/31 04:47:45;;;;;;;15.43;7.70;;;;;;;;;;5013677;28;20388;-40
2023/05/31 04:50:12;;;;;;;18.02;7.80;;;;;;;;;;5013478;28;20041;-42
2023/05/31 04:52:40;;;;;;;17.65;7.63;;;;;;;;;;5013873;28;20029;-42
2023/05/31 04:55:07;;;;;;;15.25;7.65;;;;;;;;;;4996091;28;20761;-40
2023/05/31 04:57:34;;;;;;;16.90;7.63;;;;;;;;;;5013625;28;20022;-42
2023/05/31 05:00:01;;;;;;;15.63;7.53;;;;;;;;;;4995995;28;20030;-42
2023/05/31 05:02:29;;;;;;;15.80;7.22;;;;;;;;;;5013558;28;20068;-42
2023/05/31 05:04:56;;;;;;;24.48;7.97;;;;;;;;;;5013395;28;20037;-45
2023/05/31 05:07:23;;;;;;;14.88;7.10;;;;;;;;;;5013497;28;20033;-44
2023/05/31 05:09:50;;;;;;;13.43;7.18;;;;;;;;;;5013303;28;20446;-42
2023/05/31 05:12:17;;;;;;;17.27;7.70;;;;;;;;;;4995935;28;20396;-42
2023/05/31 05:14:44;;;;;;;14.63;7.13;;;;;;;;;;5013373;28;20488;-42
2023/05/31 05:17:11;;;;;;;14.00;7.20;;;;;;;;;;5013286;28;20026;-42
2023/05/31 05:19:38;;;;;;;13.63;7.40;;;;;;;;;;5013247;28;20022;-43
2023/05/31 05:22:05;;;;;;;12.50;6.78;;;;;;;;;;5013171;28;20042;-42
2023/05/31 05:24:32;;;;;;;15.50;6.78;;;;;;;;;;5013162;28;20030;-44
2023/05/31 05:26:59;;;;;;;13.07;6.25;;;;;;;;;;5013162;28;20364;-43
2023/05/31 05:29:26;;;;;;;15.27;6.75;;;;;;;;;;5012972;28;20053;-43
2023/05/31 05:31:53;;;;;;;14.93;6.60;;;;;;;;;;5012870;28;20021;-43
2023/05/31 05:34:20;;;;;;;14.02;6.82;;;;;;;;;;5012983;28;20080;-44
2023/05/31 05:36:47;;;;;;;14.70;6.65;;;;;;;;;;5012576;28;20037;-42
2023/05/31 05:39:14;;;;;;;14.52;6.50;;;;;;;;;;5012769;28;20026;-39
2023/05/31 05:41:41;;;;;;;11.00;5.90;;;;;;;;;;5012740;28;20093;-42
2023/05/31 05:44:08;;;;;;;13.57;6.55;;;;;;;;;;5012804;28;20026;-42
2023/05/31 05:46:35;;;;;;;12.32;6.38;;;;;;;;;;5012808;28;20021;-42
2023/05/31 05:49:02;;;;;;;14.07;6.63;;;;;;;;;;5012690;28;20551;-42
2023/05/31 05:51:29;;;;;;;13.27;6.20;;;;;;;;;;4994929;28;20026;-42
2023/05/31 05:53:56;;;;;;;13.63;6.25;;;;;;;;;;4994969;28;20022;-42
2023/05/31 05:56:23;;;;;;;14.57;6.40;;;;;;;;;;5012593;28;20101;-42
2023/05/31 05:58:50;;;;;;;14.30;6.25;;;;;;;;;;5012515;28;20037;-42
2023/05/31 06:01:18;;;;;;;11.55;5.93;;;;;;;;;;5011169;28;20086;-42
2023/05/31 06:03:48;;;;;;;13.65;6.70;;;;;;;;;;5012317;28;20040;-40
2023/05/31 06:06:16;;;;;;;14.55;6.30;;;;;;;;;;5012510;28;20103;-40
2023/05/31 06:08:46;;;;;;;13.98;6.53;;;;;;;;;;5012224;28;20034;-40
2023/05/31 06:11:18;;;;;;;12.55;6.40;;;;;;;;;;5012200;28;20369;-40
2023/05/31 06:13:45;;;;;;;10.48;6.22;;;;;;;;;;5012070;28;20435;-39
2023/05/31 06:16:14;;;;;;;13.20;6.57;;;;;;;;;;5012337;28;20030;-40
2023/05/31 06:18:41;;;;;;;12.73;6.38;;;;;;;;;;5012260;28;20037;-40
2023/05/31 06:21:08;;;;;;;12.75;5.85;;;;;;;;;;5012076;28;20499;-41
2023/05/31 06:23:35;;;;;;;12.77;6.00;;;;;;;;;;5012168;28;20030;-40
2023/05/31 06:26:02;;;;;;;13.05;5.90;;;;;;;;;;5012187;28;20037;-40
2023/05/31 06:28:29;;;;;;;13.98;5.90;;;;;;;;;;5012209;28;20026;-39
2023/05/31 06:30:56;;;;;;;11.20;5.95;;;;;;;;;;5012077;28;20100;-41
2023/05/31 06:33:23;;;;;;;11.82;6.20;;;;;;;;;;5011468;28;20042;-42
2023/05/31 06:35:50;;;;;;;13.18;5.95;;;;;;;;;;5011969;28;20153;-40
2023/05/31 06:38:17;;;;;;;11.55;5.70;;;;;;;;;;5011613;28;20504;-41
2023/05/31 06:40:45;;;;;;;10.73;5.55;;;;;;;;;;5011945;28;20022;-40
2023/05/31 06:43:12;;;;;;;11.70;6.00;;;;;;;;;;5011884;28;20038;-43
2023/05/31 06:45:41;;;;;;;11.65;5.55;;;;;;;;;;5012023;28;20037;-41
2023/05/31 06:48:09;;;;;;;11.07;5.50;;;;;;;;;;5011645;28;20030;-40
2023/05/31 06:50:36;;;;;;;11.82;5.63;;;;;;;;;;5011820;28;20014;-39
2023/05/31 06:53:03;;;;;;;9.82;5.60;;;;;;;;;;5011891;28;20045;-39
2023/05/31 06:55:30;;;;;;;12.43;6.18;;;;;;;;;;5011889;28;20068;-40
2023/05/31 06:57:57;;;;;;;11.52;5.80;;;;;;;;;;5011884;28;20076;-40
2023/05/31 07:00:24;;;;;;;10.95;5.75;;;;;;;;;;5011638;28;20476;-42
2023/05/31 07:02:51;;;;;;;12.63;6.35;;;;;;;;;;5011646;28;20026;-40
2023/05/31 07:05:18;;;;;;;10.68;5.45;;;;;;;;;;5011733;28;20431;-42
2023/05/31 07:07:45;;;;;;;12.23;5.53;;;;;;;;;;5011743;28;20025;-42
2023/05/31 07:10:13;;;;;;;9.60;5.28;;;;;;;;;;5011670;28;20431;-40
2023/05/31 07:12:40;;;;;;;10.07;5.18;;;;;;;;;;5011451;28;20444;-41
2023/05/31 07:15:09;;;;;;;11.40;5.45;;;;;;;;;;5168402;22;20057;-43
2023/05/31 07:17:36;;;;;;;11.15;5.28;;;;;;;;;;5011622;28;20072;-43
2023/05/31 07:20:05;;;;;;;11.30;5.28;;;;;;;;;;5011720;28;20021;-42
2023/05/31 07:22:32;;;;;;;10.80;5.50;;;;;;;;;;5011377;28;20038;-44
2023/05/31 07:24:59;;;;;;;9.48;5.65;;;;;;;;;;5011570;28;20028;-42
2023/05/31 07:27:26;;;;;;;10.57;5.47;;;;;;;;;;5011446;28;20041;-43
2023/05/31 07:29:53;;;;;;;9.65;4.95;;;;;;;;;;5011529;28;20030;-42
2023/05/31 07:32:20;;;;;;;10.43;5.25;;;;;;;;;;5011529;28;20034;-41
2023/05/31 07:34:47;;;;;;;10.10;5.05;;;;;;;;;;5011390;28;20037;-43
2023/05/31 07:37:14;;;;;;;9.02;4.65;;;;;;;;;;5011492;28;20502;-41
2023/05/31 07:39:41;;;;;;;10.85;5.55;;;;;;;;;;5011486;28;20069;-41
2023/05/31 07:42:08;;;;;;;9.52;5.28;;;;;;;;;;5011355;28;20049;-41
2023/05/31 07:44:35;;;;;;;9.70;5.13;;;;;;;;;;5011353;28;20030;-41
2023/05/31 07:47:02;;;;;;;10.02;5.50;;;;;;;;;;5011445;28;20506;-41
2023/05/31 07:49:29;;;;;;;11.55;5.28;;;;;;;;;;5011344;28;20110;-41
2023/05/31 07:51:56;;;;;;;10.70;5.53;;;;;;;;;;5014036;28;20502;-41
2023/05/31 07:54:23;;;;;;;8.60;4.75;;;;;;;;;;5014842;28;20470;-41
2023/05/31 07:56:50;;;;;;;10.50;5.15;;;;;;;;;;5014882;28;20029;-41
2023/05/31 07:59:18;;;;;;;9.10;4.88;;;;;;;;;;5014662;28;20061;-44
2023/05/31 08:01:46;;;;;;;10.75;5.40;;;;;;;;;;5014683;28;20045;-41
2023/05/31 08:04:13;;;;;;;9.77;5.00;;;;;;;;;;5014454;28;20498;-40
2023/05/31 08:06:41;;;;;;;10.40;5.03;;;;;;;;;;5014681;28;20069;-44
2023/05/31 08:09:09;;;;;;;9.02;4.80;;;;;;;;;;5014513;28;20092;-42
2023/05/31 08:11:36;;;;;;;8.80;4.63;;;;;;;;;;5014395;28;20384;-40
2023/05/31 08:14:04;;;;;;;11.52;4.90;;;;;;;;;;5014426;28;20105;-44
2023/05/31 08:16:31;;;;;;;9.50;5.13;;;;;;;;;;5014278;28;20053;-45
2023/05/31 08:18:58;;;;;;;9.68;4.90;;;;;;;;;;5014435;28;20061;-41
2023/05/31 08:21:26;;;;;;;9.77;4.85;;;;;;;;;;5014139;28;20038;-41
2023/05/31 08:23:53;;;;;;;8.20;4.18;;;;;;;;;;5014403;28;20033;-41
2023/05/31 08:26:20;;;;;;;7.55;4.53;;;;;;;;;;4996565;28;20401;-41
2023/05/31 08:28:47;;;;;;;8.23;4.90;;;;;;;;;;5014313;28;20022;-41
2023/05/31 08:31:14;;;;;;;9.23;4.72;;;;;;;;;;5014062;28;20049;-42
2023/05/31 08:33:53;;;;;;;9.63;4.28;;;;;;;;;;4996298;28;20438;-41
2023/05/31 08:36:20;;;;;;;7.38;4.32;;;;;;;;;;5014041;28;20030;-42
2023/05/31 08:38:47;;;;;;;8.55;4.75;;;;;;;;;;5014047;28;20026;-41
2023/05/31 08:41:14;;;;;;;10.75;4.55;;;;;;;;;;5013953;28;20030;-40
2023/05/31 08:43:41;;;;;;;8.88;4.70;;;;;;;;;;5013950;28;20037;-41
2023/05/31 08:46:08;;;;;;;8.57;4.70;;;;;;;;;;5013653;28;20037;-40
2023/05/31 08:48:44;;;;;;;10.57;4.93;;;;;;;;;;5013726;28;20404;-43
2023/05/31 08:51:11;;;;;;;10.05;4.80;;;;;;;;;;5013868;28;20038;-42
2023/05/31 08:53:40;;;;;;;9.43;4.60;;;;;;;;;;5013828;28;20030;-42
2023/05/31 08:56:08;;;;;;;6.90;4.60;;;;;;;;;;5013630;28;20037;-41
2023/05/31 08:58:36;;;;;;;8.82;4.55;;;;;;;;;;5013562;28;20037;-41
2023/05/31 09:01:03;;;;;;;7.82;4.32;;;;;;;;;;5013406;28;20479;-41
2023/05/31 09:03:32;;;;;;;7.85;4.32;;;;;;;;;;5013494;28;20038;-43
2023/05/31 09:05:59;;;;;;;8.07;4.72;;;;;;;;;;5013326;28;20435;-42
2023/05/31 09:08:26;;;;;;;7.63;4.57;;;;;;;;;;5013344;28;20386;-44
2023/05/31 09:10:53;;;;;;;8.18;4.20;;;;;;;;;;5013437;28;20594;-43
2023/05/31 09:13:20;;;;;;;8.85;4.25;;;;;;;;;;5013478;28;20145;-42
2023/05/31 09:15:47;;;;;;;7.40;4.18;;;;;;;;;;5013021;28;20081;-43
2023/05/31 09:18:16;;;;;;;6.57;3.88;;;;;;;;;;5013361;28;20105;-43
2023/05/31 09:20:43;;;;;;;6.60;3.80;;;;;;;;;;5013244;28;20030;-43
2023/05/31 09:23:10;;;;;;;8.32;4.45;;;;;;;;;;5013212;28;20499;-44
2023/05/31 09:25:43;;;;;;;6.93;4.32;;;;;;;;;;5012752;28;20068;-45
2023/05/31 09:28:11;;;;;;;7.28;4.25;;;;;;;;;;5013177;28;20502;-44
2023/05/31 09:30:38;;;;;;;7.10;4.13;;;;;;;;;;5013155;28;20026;-43
2023/05/31 09:33:05;;;;;;;8.05;4.07;;;;;;;;;;5013079;28;20045;-44
2023/05/31 09:35:32;;;;;;;7.13;4.20;;;;;;;;;;5012263;28;20038;-44
2023/05/31 09:38:04;;;;;;;7.00;4.03;;;;;;;;;;5012815;28;20037;-44
2023/05/31 09:40:32;;;;;;;7.13;3.30;;;;;;;;;;5004284;28;20052;-42
2023/05/31 09:42:59;;;;;;;6.97;3.67;;;;;;;;;;5012483;28;20092;-43
2023/05/31 09:45:28;;;;;;;6.28;3.63;;;;;;;;;;5008282;28;20069;-42
2023/05/31 09:47:55;;;;;;;8.32;3.42;;;;;;;;;;4992261;28;20034;-42
2023/05/31 09:50:22;;;;;;;10.20;3.88;;;;;;;;;;4993011;28;20037;-42
2023/05/31 09:52:51;;;;;;;5.97;3.28;;;;;;;;;;4992964;28;20034;-44
2023/05/31 09:55:19;;;;;;;10.05;4.15;;;;;;;;;;4992721;28;20037;-42
2023/05/31 09:57:46;;;;;;;10.70;3.80;;;;;;;;;;4975441;28;20081;-45
2023/05/31 10:00:20;;;;;;;9.13;3.70;;;;;;;;;;4992751;28;20443;-42
2023/05/31 10:02:48;;;;;;;10.35;3.50;;;;;;;;;;4992926;28;20050;-42
2023/05/31 10:05:16;;;;;;;5.93;3.53;;;;;;;;;;4992846;28;20030;-43
2023/05/31 10:07:44;;;;;;;7.38;3.42;;;;;;;;;;4992822;28;20109;-42
2023/05/31 10:10:11;;;;;;;6.72;3.75;;;;;;;;;;4992801;28;20089;-43
2023/05/31 10:12:58;;;;;;;4.78;2.45;;;;;;;;;;4992706;28;20034;-43
2023/05/31 10:15:26;;;;;;;6.90;3.55;;;;;;;;;;4992267;28;20085;-42
2023/05/31 10:17:56;;;;;;;7.47;3.45;;;;;;;;;;4992690;28;20077;-42
2023/05/31 10:20:25;;;;;;;6.18;3.33;;;;;;;;;;4992893;28;20388;-43
2023/05/31 10:22:54;;;;;;;9.05;3.60;;;;;;;;;;4992594;28;20042;-43
2023/05/31 10:25:32;;;;;;;6.05;3.00;;;;;;;;;;4992550;28;20061;-43
2023/05/31 10:28:01;;;;;;;8.52;3.58;;;;;;;;;;4992555;28;20492;-44
2023/05/31 10:30:31;;;;;;;8.27;3.63;;;;;;;;;;4992518;28;20030;-43
2023/05/31 10:33:07;;;;;;;5.38;3.30;;;;;;;;;;4992524;28;20037;-42
2023/05/31 10:35:37;;;;;;;9.35;3.60;;;;;;;;;;4992174;28;20065;-43
2023/05/31 10:38:05;;;;;;;6.25;3.28;;;;;;;;;;4992415;28;20037;-45
2023/05/31 10:40:32;;;;;;;7.68;3.30;;;;;;;;;;4992421;28;20034;-42
2023/05/31 10:43:07;;;;;;;7.10;3.78;;;;;;;;;;4992356;28;20034;-43
2023/05/31 10:45:43;;;;;;;8.10;3.28;;;;;;;;;;4992291;28;20102;-42
2023/05/31 10:48:10;;;;;;;5.78;3.20;;;;;;;;;;4974724;28;20026;-43
2023/05/31 10:50:52;;;;;;;7.63;3.40;;;;;;;;;;4992319;28;20043;-44
2023/05/31 10:53:19;;;;;;;7.13;3.08;;;;;;;;;;4992312;28;20528;-45
2023/05/31 10:55:48;;;;;;;5.78;3.33;;;;;;;;;;4992207;28;20029;-44
2023/05/31 10:58:29;;;;;;;5.50;3.22;;;;;;;;;;4992029;28;20084;-44
2023/05/31 11:01:03;;;;;;;5.43;2.75;;;;;;;;;;4992142;28;20031;-44
2023/05/31 11:03:31;;;;;;;6.05;3.15;;;;;;;;;;4992107;28;20043;-45
2023/05/31 11:06:00;;;;;;;6.35;3.00;;;;;;;;;;4992123;28;20034;-45
2023/05/31 11:08:28;;;;;;;7.50;3.00;;;;;;;;;;4991949;28;20057;-44
2023/05/31 11:11:14;;;;;;;4.85;3.05;;;;;;;;;;4992009;28;20401;-45
2023/05/31 11:13:57;;;;;;;8.13;3.20;;;;;;;;;;5003650;28;20032;-43
2023/05/31 11:16:25;;;;;;;7.50;3.20;;;;;;;;;;5010597;28;20136;-42
2023/05/31 11:19:12;;;;;;;11.73;3.60;;;;;;;;;;4993221;28;20116;-41
2023/05/31 11:21:49;;;;;;;7.13;3.20;;;;;;;;;;4993664;28;20415;-43
2023/05/31 11:24:47;;;;;;;6.80;3.08;;;;;;;;;;5010863;28;20061;-41
2023/05/31 11:27:14;;;;;;;5.65;2.88;;;;;;;;;;4995373;28;20041;-42
2023/05/31 11:29:53;;;;;;;6.45;2.50;;;;;;;;;;5014796;28;20053;-42
2023/05/31 11:32:22;;;;;;;6.20;2.60;;;;;;;;;;5012770;28;20057;-41
2023/05/31 11:34:57;;;;;;;6.88;2.42;;;;;;;;;;5014637;28;20388;-42
2023/05/31 11:37:34;;;;;;;6.72;2.90;;;;;;;;;;5013153;28;20033;-42
2023/05/31 11:40:02;;;;;;;7.38;2.92;;;;;;;;;;5014677;28;20179;-42
2023/05/31 11:42:32;;;;;;;4.22;2.30;;;;;;;;;;5014409;28;20041;-41
2023/05/31 11:45:04;;;;;;;10.90;2.65;;;;;;;;;;4995220;28;20095;-41
2023/05/31 11:47:34;;;;;;;9.15;2.58;;;;;;;;;;4994935;28;20053;-42
2023/05/31 11:50:01;;;;;;;10.10;2.95;;;;;;;;;;4995250;28;20514;-42
2023/05/31 11:52:30;;;;;;;19.70;3.10;;;;;;;;;;4995375;28;20034;-41
2023/05/31 11:55:05;;;;;;;17.75;3.17;;;;;;;;;;4995237;28;20037;-42
2023/05/31 11:57:41;;;;;;;7.72;2.80;;;;;;;;;;4995155;28;20117;-43
2023/05/31 12:00:11;;;;;;;15.10;3.03;;;;;;;;;;4995056;28;20030;-43
2023/05/31 12:02:41;;;;;;;7.45;2.50;;;;;;;;;;4994995;28;20391;-44
2023/05/31 12:05:16;;;;;;;7.50;2.85;;;;;;;;;;4995089;28;20038;-44
2023/05/31 12:07:43;;;;;;;9.75;3.80;;;;;;;;;;4995044;28;20026;-44
2023/05/31 12:10:10;;;;;;;8.05;2.67;;;;;;;;;;4995073;28;20369;-43
2023/05/31 12:12:40;;;;;;;5.57;2.70;;;;;;;;;;4994972;28;20069;-43
2023/05/31 12:15:07;;;;;;;6.22;2.63;;;;;;;;;;4994488;28;20050;-43
2023/05/31 12:17:34;;;;;;;10.23;2.92;;;;;;;;;;4994910;28;20034;-44
2023/05/31 12:20:04;;;;;;;7.00;2.80;;;;;;;;;;4994824;28;20046;-43
2023/05/31 12:22:31;;;;;;;9.10;2.58;;;;;;;;;;4994590;28;20491;-48
2023/05/31 12:24:58;;;;;;;5.15;2.80;;;;;;;;;;4994577;28;20046;-45
2023/05/31 12:27:27;;;;;;;6.78;2.85;;;;;;;;;;4994733;28;20104;-45
2023/05/31 12:30:01;;;;;;;6.90;2.60;;;;;;;;;;4994466;28;20057;-44
2023/05/31 12:32:28;;;;;;;6.15;2.60;;;;;;;;;;4994647;28;20039;-44
2023/05/31 12:35:12;;;;;;;5.63;2.50;;;;;;;;;;4994675;28;20120;-43
2023/05/31 12:37:39;;;;;;;6.50;2.50;;;;;;;;;;4976283;28;20117;-43
2023/05/31 12:40:20;;;;;;;6.60;2.75;;;;;;;;;;4994396;28;20109;-44
2023/05/31 12:42:47;;;;;;;7.25;2.47;;;;;;;;;;4994334;28;20069;-43
2023/05/31 12:45:18;;;;;;;4.90;2.40;;;;;;;;;;4994351;28;20121;-45
2023/05/31 12:47:45;;;;;;;8.02;2.80;;;;;;;;;;4994490;28;20160;-44
2023/05/31 12:50:12;;;;;;;6.90;2.60;;;;;;;;;;4994310;28;20125;-43
2023/05/31 12:52:40;;;;;;;4.53;2.30;;;;;;;;;;4994247;28;20038;-44
2023/05/31 12:55:07;;;;;;;4.40;2.17;;;;;;;;;;4994103;28;20030;-44
2023/05/31 12:57:35;;;;;;;5.00;2.55;;;;;;;;;;4994253;28;20058;-44
2023/05/31 13:00:09;;;;;;;5.32;1.90;;;;;;;;;;4994049;28;20031;-44
2023/05/31 13:02:37;;;;;;;5.05;2.40;;;;;;;;;;4994023;28;20775;-43
2023/05/31 13:05:05;;;;;;;6.53;2.47;;;;;;;;;;4993997;28;20022;-43
2023/05/31 13:07:32;;;;;;;6.47;2.40;;;;;;;;;;4994042;28;20488;-44
2023/05/31 13:09:59;;;;;;;4.20;2.30;;;;;;;;;;4993990;28;20026;-45
2023/05/31 13:12:26;;;;;;;5.13;2.63;;;;;;;;;;4993889;28;20034;-44
2023/05/31 13:14:53;;;;;;;5.55;2.40;;;;;;;;;;4993614;28;20042;-44
2023/05/31 13:17:20;;;;;;;6.65;2.47;;;;;;;;;;4993821;28;20391;-45
2023/05/31 13:19:47;;;;;;;3.28;2.08;;;;;;;;;;4993847;28;20030;-44
2023/05/31 13:22:14;;;;;;;5.80;2.25;;;;;;;;;;4993621;28;20420;-46
2023/05/31 13:24:41;;;;;;;6.82;2.40;;;;;;;;;;4993530;28;20046;-44
2023/05/31 13:27:08;;;;;;;5.68;2.50;;;;;;;;;;4993647;28;20061;-44
2023/05/31 13:29:36;;;;;;;5.25;2.50;;;;;;;;;;4993407;28;20130;-44
2023/05/31 13:32:03;;;;;;;5.70;2.45;;;;;;;;;;4993518;28;20045;-46
2023/05/31 13:34:30;;;;;;;4.25;2.25;;;;;;;;;;4993405;28;20031;-44
2023/05/31 13:36:57;;;;;;;5.03;2.38;;;;;;;;;;4993378;28;20037;-44
2023/05/31 13:39:24;;;;;;;4.72;2.25;;;;;;;;;;4993395;28;20046;-44
2023/05/31 13:41:51;;;;;;;5.00;2.30;;;;;;;;;;4993273;28;20543;-46
2023/05/31 13:44:18;;;;;;;3.65;2.35;;;;;;;;;;4993195;28;20041;-44
2023/05/31 13:46:45;;;;;;;5.13;2.25;;;;;;;;;;4993259;28;20029;-46
2023/05/31 13:49:15;;;;;;;3.85;2.28;;;;;;;;;;4992228;28;20030;-44
2023/05/31 13:51:42;;;;;;;4.07;2.17;;;;;;;;;;4993066;28;20045;-44
2023/05/31 13:54:09;;;;;;;4.95;2.00;;;;;;;;;;4993138;28;20026;-44
2023/05/31 13:56:36;;;;;;;6.40;2.75;;;;;;;;;;4993097;28;20113;-44
2023/05/31 13:59:04;;;;;;;5.10;2.28;;;;;;;;;;4993032;28;20038;-45
2023/05/31 14:01:31;;;;;;;4.32;2.30;;;;;;;;;;4992971;28;20027;-43
2023/05/31 14:03:58;;;;;;;6.53;2.28;;;;;;;;;;4992843;28;20110;-44
2023/05/31 14:06:25;;;;;;;4.63;2.25;;;;;;;;;;4992924;28;20389;-44
2023/05/31 14:08:52;;;;;;;4.28;2.17;;;;;;;;;;4992851;28;20030;-44
2023/05/31 14:11:19;;;;;;;4.38;2.20;;;;;;;;;;4992842;28;20076;-44
2023/05/31 14:13:48;;;;;;;5.43;2.42;;;;;;;;;;4992577;28;20485;-47
2023/05/31 14:16:15;;;;;;;4.18;2.33;;;;;;;;;;4992425;28;20054;-44
2023/05/31 14:18:42;;;;;;;4.72;2.47;;;;;;;;;;4975135;28;20045;-44
2023/05/31 14:21:09;;;;;;;5.75;2.20;;;;;;;;;;4992688;28;20031;-44
2023/05/31 14:23:36;;;;;;;2.92;1.80;;;;;;;;;;4992452;28;20030;-44
2023/05/31 14:26:03;;;;;;;4.22;2.22;;;;;;;;;;4992604;28;20022;-43
2023/05/31 14:28:30;;;;;;;5.78;2.30;;;;;;;;;;4992544;28;20035;-45
2023/05/31 14:30:57;;;;;;;5.25;2.10;;;;;;;;;;4992530;28;20041;-45
2023/05/31 14:33:24;;;;;;;2.90;1.85;;;;;;;;;;4992553;28;20558;-44
2023/05/31 14:35:51;;;;;;;5.85;2.38;;;;;;;;;;4992324;28;20400;-46
2023/05/31 14:38:18;;;;;;;3.90;2.17;;;;;;;;;;4992425;28;20754;-45
2023/05/31 14:40:45;;;;;;;4.30;2.10;;;;;;;;;;4992246;28;20053;-44